Pensacola Naval Air Station,Forrest Sherman field Pensacola US
ICAO: KNPA
IATA: NPA
Category: Medium
Scheduled Services: No

Elevation: 28 ft
TransAlt. 18000 ft.

Airport Communications:
APP:120.05
ATIS:26.76
SHERMAN CLNC DEL:134.1
DEP:120.65
SHERMAN GND:121.7
SHERMAN BASE OPS:31.21
PMSV METRO:35.96
SHERMAN TWR:120.7

KNPA Zoom In..

Runways:

(A) RW 01 length 7137 ft width 200 ft
---- / hdg 7

(B) RW 07L length 8002 ft width 200 ft
ILS 109.30 / hdg 70

(C) RW 07R length 8001 ft width 200 ft
---- / hdg 69

(D) RW 19 length 7137 ft width 200 ft
---- / hdg 187

(E) RW 25L length 8001 ft width 200 ft
---- / hdg 249

(F) RW 25R length 8002 ft width 200 ft
---- / hdg 250

Location; KNPA
Day. 25 / Time. 12.56 Zulu
* Altimeter: 30.11
* Temperature: 23° c. 73.4°f.
* Wind from: 160° Speed 12 kn.
Dewpoint: 19° c.
Visibility: 9 Statute Miles.
Clouds: Broken 7000 ft.
Clouds: Broken 25000 ft.

KNPA 251256Z 16012KT 9SM BKN070 BKN250 23/19 A3011 RMK AO2 SLP197 T02280189

Going to: --> -->


Wind From 160°
Speed 12 kn.

 
 
jpsmedia worldairports.se 2020   terms of use